sensor_id;sensor_type;location;lat;lon;timestamp;temperature;humidity
33903;DHT22;20194;50.950;5.346;2024-03-29T00:02:06;10.00;47.60
33903;DHT22;20194;50.950;5.346;2024-03-29T00:04:32;10.00;46.30
33903;DHT22;20194;50.950;5.346;2024-03-29T00:06:57;10.00;47.30
33903;DHT22;20194;50.950;5.346;2024-03-29T00:09:23;9.90;47.30
33903;DHT22;20194;50.950;5.346;2024-03-29T00:11:49;9.90;49.40
33903;DHT22;20194;50.950;5.346;2024-03-29T00:14:15;9.90;48.90
33903;DHT22;20194;50.950;5.346;2024-03-29T00:16:40;9.90;48.30
33903;DHT22;20194;50.950;5.346;2024-03-29T00:19:06;9.80;49.30
33903;DHT22;20194;50.950;5.346;2024-03-29T00:21:32;9.80;50.10
33903;DHT22;20194;50.950;5.346;2024-03-29T00:23:57;9.80;49.50
33903;DHT22;20194;50.950;5.346;2024-03-29T00:26:23;9.90;50.30
33903;DHT22;20194;50.950;5.346;2024-03-29T00:28:48;9.90;49.40
33903;DHT22;20194;50.950;5.346;2024-03-29T00:31:15;9.90;49.80
33903;DHT22;20194;50.950;5.346;2024-03-29T00:33:40;9.90;49.30
33903;DHT22;20194;50.950;5.346;2024-03-29T00:36:07;9.90;49.80
33903;DHT22;20194;50.950;5.346;2024-03-29T00:38:32;10.00;49.20
33903;DHT22;20194;50.950;5.346;2024-03-29T00:40:58;10.10;49.00
33903;DHT22;20194;50.950;5.346;2024-03-29T00:43:24;10.10;49.50
33903;DHT22;20194;50.950;5.346;2024-03-29T00:45:50;10.00;49.40
33903;DHT22;20194;50.950;5.346;2024-03-29T00:48:15;10.00;50.10
33903;DHT22;20194;50.950;5.346;2024-03-29T00:50:43;10.00;51.00
33903;DHT22;20194;50.950;5.346;2024-03-29T00:53:09;10.10;50.60
33903;DHT22;20194;50.950;5.346;2024-03-29T00:55:34;10.00;49.70
33903;DHT22;20194;50.950;5.346;2024-03-29T00:58:00;10.10;50.70
33903;DHT22;20194;50.950;5.346;2024-03-29T01:00:26;10.20;50.10
33903;DHT22;20194;50.950;5.346;2024-03-29T01:02:51;10.10;50.00
33903;DHT22;20194;50.950;5.346;2024-03-29T01:05:17;10.10;49.50
33903;DHT22;20194;50.950;5.346;2024-03-29T01:07:43;10.10;49.80
33903;DHT22;20194;50.950;5.346;2024-03-29T01:10:09;10.10;50.40
33903;DHT22;20194;50.950;5.346;2024-03-29T01:12:38;10.10;50.30
33903;DHT22;20194;50.950;5.346;2024-03-29T01:15:05;10.20;51.20
33903;DHT22;20194;50.950;5.346;2024-03-29T01:17:31;10.10;49.80
33903;DHT22;20194;50.950;5.346;2024-03-29T01:19:56;10.00;50.40
33903;DHT22;20194;50.950;5.346;2024-03-29T01:22:22;10.20;50.30
33903;DHT22;20194;50.950;5.346;2024-03-29T01:24:48;10.10;49.90
33903;DHT22;20194;50.950;5.346;2024-03-29T01:27:14;10.20;50.30
33903;DHT22;20194;50.950;5.346;2024-03-29T01:29:39;10.20;49.50
33903;DHT22;20194;50.950;5.346;2024-03-29T01:32:06;10.20;49.20
33903;DHT22;20194;50.950;5.346;2024-03-29T01:34:32;10.20;49.70
33903;DHT22;20194;50.950;5.346;2024-03-29T01:36:58;10.20;48.90
33903;DHT22;20194;50.950;5.346;2024-03-29T01:39:24;10.30;48.70
33903;DHT22;20194;50.950;5.346;2024-03-29T01:41:54;10.30;48.00
33903;DHT22;20194;50.950;5.346;2024-03-29T01:44:20;10.30;47.40
33903;DHT22;20194;50.950;5.346;2024-03-29T01:46:49;10.40;47.70
33903;DHT22;20194;50.950;5.346;2024-03-29T01:49:14;10.30;46.90
33903;DHT22;20194;50.950;5.346;2024-03-29T01:51:42;10.30;47.00
33903;DHT22;20194;50.950;5.346;2024-03-29T01:54:09;10.40;44.40
33903;DHT22;20194;50.950;5.346;2024-03-29T01:56:36;10.50;41.00
33903;DHT22;20194;50.950;5.346;2024-03-29T01:59:11;10.50;41.30
33903;DHT22;20194;50.950;5.346;2024-03-29T02:01:38;10.60;37.90
33903;DHT22;20194;50.950;5.346;2024-03-29T02:04:06;10.60;38.00
33903;DHT22;20194;50.950;5.346;2024-03-29T02:06:32;10.60;38.30
33903;DHT22;20194;50.950;5.346;2024-03-29T02:08:58;10.60;38.90
33903;DHT22;20194;50.950;5.346;2024-03-29T02:11:24;10.60;38.90
33903;DHT22;20194;50.950;5.346;2024-03-29T02:13:50;10.60;39.00
33903;DHT22;20194;50.950;5.346;2024-03-29T02:16:17;10.60;39.50
33903;DHT22;20194;50.950;5.346;2024-03-29T02:18:45;10.60;41.20
33903;DHT22;20194;50.950;5.346;2024-03-29T02:21:11;10.60;42.90
33903;DHT22;20194;50.950;5.346;2024-03-29T02:23:42;10.60;44.40
33903;DHT22;20194;50.950;5.346;2024-03-29T02:26:09;10.60;46.30
33903;DHT22;20194;50.950;5.346;2024-03-29T02:28:35;10.60;49.10
33903;DHT22;20194;50.950;5.346;2024-03-29T02:31:01;10.50;52.50
33903;DHT22;20194;50.950;5.346;2024-03-29T02:33:27;10.50;54.00
33903;DHT22;20194;50.950;5.346;2024-03-29T02:35:54;10.40;56.30
33903;DHT22;20194;50.950;5.346;2024-03-29T02:38:20;10.40;61.20
33903;DHT22;20194;50.950;5.346;2024-03-29T02:40:50;10.30;66.80
33903;DHT22;20194;50.950;5.346;2024-03-29T02:43:16;10.20;72.20
33903;DHT22;20194;50.950;5.346;2024-03-29T02:45:43;10.00;78.50
33903;DHT22;20194;50.950;5.346;2024-03-29T02:48:08;9.90;82.60
33903;DHT22;20194;50.950;5.346;2024-03-29T02:50:34;9.90;85.20
33903;DHT22;20194;50.950;5.346;2024-03-29T02:53:00;9.80;88.60
33903;DHT22;20194;50.950;5.346;2024-03-29T02:55:26;9.70;90.30
33903;DHT22;20194;50.950;5.346;2024-03-29T02:57:51;9.60;91.20
33903;DHT22;20194;50.950;5.346;2024-03-29T03:00:17;9.40;92.30
33903;DHT22;20194;50.950;5.346;2024-03-29T03:02:43;9.40;93.50
33903;DHT22;20194;50.950;5.346;2024-03-29T03:05:08;9.30;94.60
33903;DHT22;20194;50.950;5.346;2024-03-29T03:07:34;9.20;95.20
33903;DHT22;20194;50.950;5.346;2024-03-29T03:10:18;9.10;95.50
33903;DHT22;20194;50.950;5.346;2024-03-29T03:13:02;9.10;96.40
33903;DHT22;20194;50.950;5.346;2024-03-29T03:15:29;9.00;97.30
33903;DHT22;20194;50.950;5.346;2024-03-29T03:17:55;8.90;97.70
33903;DHT22;20194;50.950;5.346;2024-03-29T03:20:23;8.90;97.70
33903;DHT22;20194;50.950;5.346;2024-03-29T03:22:53;8.90;97.90
33903;DHT22;20194;50.950;5.346;2024-03-29T03:25:21;8.90;98.30
33903;DHT22;20194;50.950;5.346;2024-03-29T03:27:47;8.90;98.50
33903;DHT22;20194;50.950;5.346;2024-03-29T03:30:13;8.90;98.80
33903;DHT22;20194;50.950;5.346;2024-03-29T03:32:39;8.80;99.10
33903;DHT22;20194;50.950;5.346;2024-03-29T03:35:05;8.80;99.10
33903;DHT22;20194;50.950;5.346;2024-03-29T03:37:34;8.90;99.20
33903;DHT22;20194;50.950;5.346;2024-03-29T03:40:00;8.90;99.50
33903;DHT22;20194;50.950;5.346;2024-03-29T03:42:25;9.00;99.60
33903;DHT22;20194;50.950;5.346;2024-03-29T03:44:51;8.90;99.80
33903;DHT22;20194;50.950;5.346;2024-03-29T03:47:18;9.00;99.90
33903;DHT22;20194;50.950;5.346;2024-03-29T03:49:43;9.00;99.90
33903;DHT22;20194;50.950;5.346;2024-03-29T03:52:09;9.10;99.90
33903;DHT22;20194;50.950;5.346;2024-03-29T03:54:35;8.90;99.70
33903;DHT22;20194;50.950;5.346;2024-03-29T03:57:01;8.90;99.90
33903;DHT22;20194;50.950;5.346;2024-03-29T03:59:26;8.90;99.90
33903;DHT22;20194;50.950;5.346;2024-03-29T04:01:52;8.80;99.90
33903;DHT22;20194;50.950;5.346;2024-03-29T04:04:19;8.90;99.90
33903;DHT22;20194;50.950;5.346;2024-03-29T04:06:45;9.10;99.90
33903;DHT22;20194;50.950;5.346;2024-03-29T04:09:16;9.20;99.40
33903;DHT22;20194;50.950;5.346;2024-03-29T04:11:42;9.20;99.20
33903;DHT22;20194;50.950;5.346;2024-03-29T04:14:08;9.30;98.90
33903;DHT22;20194;50.950;5.346;2024-03-29T04:16:37;9.60;98.40
33903;DHT22;20194;50.950;5.346;2024-03-29T04:19:05;9.40;98.10
33903;DHT22;20194;50.950;5.346;2024-03-29T04:21:34;9.30;98.70
33903;DHT22;20194;50.950;5.346;2024-03-29T04:23:59;9.30;99.20
33903;DHT22;20194;50.950;5.346;2024-03-29T04:26:25;9.50;98.80
33903;DHT22;20194;50.950;5.346;2024-03-29T04:28:51;9.60;97.90
33903;DHT22;20194;50.950;5.346;2024-03-29T04:31:16;9.80;97.30
33903;DHT22;20194;50.950;5.346;2024-03-29T04:33:42;9.60;96.60
33903;DHT22;20194;50.950;5.346;2024-03-29T04:36:08;9.40;97.60
33903;DHT22;20194;50.950;5.346;2024-03-29T04:38:34;9.40;97.80
33903;DHT22;20194;50.950;5.346;2024-03-29T04:41:00;9.70;97.70
33903;DHT22;20194;50.950;5.346;2024-03-29T04:43:27;9.90;96.80
33903;DHT22;20194;50.950;5.346;2024-03-29T04:46:15;10.10;95.80
33903;DHT22;20194;50.950;5.346;2024-03-29T04:48:45;10.20;95.00
33903;DHT22;20194;50.950;5.346;2024-03-29T04:51:12;10.30;94.30
33903;DHT22;20194;50.950;5.346;2024-03-29T04:53:38;10.30;93.20
33903;DHT22;20194;50.950;5.346;2024-03-29T04:56:05;9.90;94.70
33903;DHT22;20194;50.950;5.346;2024-03-29T04:58:31;9.90;95.30
33903;DHT22;20194;50.950;5.346;2024-03-29T05:00:57;9.90;95.60
33903;DHT22;20194;50.950;5.346;2024-03-29T05:03:25;10.10;95.60
33903;DHT22;20194;50.950;5.346;2024-03-29T05:05:52;10.30;95.00
33903;DHT22;20194;50.950;5.346;2024-03-29T05:08:21;10.40;94.60
33903;DHT22;20194;50.950;5.346;2024-03-29T05:10:49;10.40;94.20
33903;DHT22;20194;50.950;5.346;2024-03-29T05:13:18;10.50;93.60
33903;DHT22;20194;50.950;5.346;2024-03-29T05:15:46;10.30;93.30
33903;DHT22;20194;50.950;5.346;2024-03-29T05:18:12;10.20;94.60
33903;DHT22;20194;50.950;5.346;2024-03-29T05:20:38;10.10;95.50
33903;DHT22;20194;50.950;5.346;2024-03-29T05:23:07;10.20;94.90
33903;DHT22;20194;50.950;5.346;2024-03-29T05:25:33;10.10;95.70
33903;DHT22;20194;50.950;5.346;2024-03-29T05:27:58;10.10;95.40
33903;DHT22;20194;50.950;5.346;2024-03-29T05:30:24;10.10;96.00
33903;DHT22;20194;50.950;5.346;2024-03-29T05:32:50;10.10;96.20
33903;DHT22;20194;50.950;5.346;2024-03-29T05:35:16;10.00;95.70
33903;DHT22;20194;50.950;5.346;2024-03-29T05:37:41;9.80;96.10
33903;DHT22;20194;50.950;5.346;2024-03-29T05:40:08;9.70;97.10
33903;DHT22;20194;50.950;5.346;2024-03-29T05:42:34;9.80;96.90
33903;DHT22;20194;50.950;5.346;2024-03-29T05:45:03;10.00;95.90
33903;DHT22;20194;50.950;5.346;2024-03-29T05:47:32;9.90;96.10
33903;DHT22;20194;50.950;5.346;2024-03-29T05:49:58;9.90;96.50
33903;DHT22;20194;50.950;5.346;2024-03-29T05:52:24;10.00;96.30
33903;DHT22;20194;50.950;5.346;2024-03-29T05:54:49;9.90;96.40
33903;DHT22;20194;50.950;5.346;2024-03-29T05:57:18;9.60;97.10
33903;DHT22;20194;50.950;5.346;2024-03-29T05:59:47;9.40;98.40
33903;DHT22;20194;50.950;5.346;2024-03-29T06:02:12;9.20;99.00
33903;DHT22;20194;50.950;5.346;2024-03-29T06:04:38;9.20;99.90
33903;DHT22;20194;50.950;5.346;2024-03-29T06:07:05;9.20;99.90
33903;DHT22;20194;50.950;5.346;2024-03-29T06:09:33;9.40;99.90
33903;DHT22;20194;50.950;5.346;2024-03-29T06:12:00;9.30;99.50
33903;DHT22;20194;50.950;5.346;2024-03-29T06:14:26;9.10;99.90
33903;DHT22;20194;50.950;5.346;2024-03-29T06:17:11;9.30;99.90
33903;DHT22;20194;50.950;5.346;2024-03-29T06:19:53;9.50;99.90
33903;DHT22;20194;50.950;5.346;2024-03-29T06:22:23;9.80;99.50
33903;DHT22;20194;50.950;5.346;2024-03-29T06:24:49;9.90;98.60
33903;DHT22;20194;50.950;5.346;2024-03-29T06:27:17;10.00;97.60
33903;DHT22;20194;50.950;5.346;2024-03-29T06:29:46;10.10;97.50
33903;DHT22;20194;50.950;5.346;2024-03-29T06:32:12;10.30;96.70
33903;DHT22;20194;50.950;5.346;2024-03-29T06:34:37;10.30;96.80
33903;DHT22;20194;50.950;5.346;2024-03-29T06:37:03;10.50;96.70
33903;DHT22;20194;50.950;5.346;2024-03-29T06:39:29;10.60;96.50
33903;DHT22;20194;50.950;5.346;2024-03-29T06:41:55;10.70;96.00
33903;DHT22;20194;50.950;5.346;2024-03-29T06:44:20;10.60;95.10
33903;DHT22;20194;50.950;5.346;2024-03-29T06:46:47;10.50;95.40
33903;DHT22;20194;50.950;5.346;2024-03-29T06:49:13;10.60;95.20
33903;DHT22;20194;50.950;5.346;2024-03-29T06:51:42;10.60;95.40
33903;DHT22;20194;50.950;5.346;2024-03-29T06:54:08;10.80;94.70
33903;DHT22;20194;50.950;5.346;2024-03-29T06:56:34;10.90;94.30
33903;DHT22;20194;50.950;5.346;2024-03-29T06:59:00;10.90;94.20
33903;DHT22;20194;50.950;5.346;2024-03-29T07:01:25;11.00;94.30
33903;DHT22;20194;50.950;5.346;2024-03-29T07:03:51;10.90;94.30
33903;DHT22;20194;50.950;5.346;2024-03-29T07:06:17;10.70;94.00
33903;DHT22;20194;50.950;5.346;2024-03-29T07:08:42;10.60;93.80
33903;DHT22;20194;50.950;5.346;2024-03-29T07:11:08;10.50;94.80
33903;DHT22;20194;50.950;5.346;2024-03-29T07:13:35;10.50;94.90
33903;DHT22;20194;50.950;5.346;2024-03-29T07:16:01;10.60;94.80
33903;DHT22;20194;50.950;5.346;2024-03-29T07:18:27;10.70;94.30
33903;DHT22;20194;50.950;5.346;2024-03-29T07:20:53;10.70;94.10
33903;DHT22;20194;50.950;5.346;2024-03-29T07:23:19;10.70;94.50
33903;DHT22;20194;50.950;5.346;2024-03-29T07:25:56;10.70;95.00
33903;DHT22;20194;50.950;5.346;2024-03-29T07:28:22;10.70;94.70
33903;DHT22;20194;50.950;5.346;2024-03-29T07:30:48;10.80;94.30
33903;DHT22;20194;50.950;5.346;2024-03-29T07:33:15;10.90;94.20
33903;DHT22;20194;50.950;5.346;2024-03-29T07:35:42;11.10;93.80
33903;DHT22;20194;50.950;5.346;2024-03-29T07:38:10;11.00;93.80
33903;DHT22;20194;50.950;5.346;2024-03-29T07:40:36;11.00;94.30
33903;DHT22;20194;50.950;5.346;2024-03-29T07:43:02;11.00;94.20
33903;DHT22;20194;50.950;5.346;2024-03-29T07:45:28;11.10;94.10
33903;DHT22;20194;50.950;5.346;2024-03-29T07:47:54;11.10;94.60
33903;DHT22;20194;50.950;5.346;2024-03-29T07:50:20;11.00;94.90
33903;DHT22;20194;50.950;5.346;2024-03-29T07:52:46;10.80;95.70
33903;DHT22;20194;50.950;5.346;2024-03-29T07:55:12;10.60;96.80
33903;DHT22;20194;50.950;5.346;2024-03-29T07:57:37;10.70;97.30
33903;DHT22;20194;50.950;5.346;2024-03-29T08:00:04;10.80;97.40
33903;DHT22;20194;50.950;5.346;2024-03-29T08:02:32;10.80;97.60
33903;DHT22;20194;50.950;5.346;2024-03-29T08:04:58;10.60;97.90
33903;DHT22;20194;50.950;5.346;2024-03-29T08:07:24;10.60;98.50
33903;DHT22;20194;50.950;5.346;2024-03-29T08:09:51;10.60;98.70
33903;DHT22;20194;50.950;5.346;2024-03-29T08:12:17;10.70;98.80
33903;DHT22;20194;50.950;5.346;2024-03-29T08:14:42;10.80;98.90
33903;DHT22;20194;50.950;5.346;2024-03-29T08:17:08;10.80;99.20
33903;DHT22;20194;50.950;5.346;2024-03-29T08:19:40;10.70;99.60
33903;DHT22;20194;50.950;5.346;2024-03-29T08:22:08;10.80;99.90
33903;DHT22;20194;50.950;5.346;2024-03-29T08:24:39;10.80;99.90
33903;DHT22;20194;50.950;5.346;2024-03-29T08:27:05;10.90;99.90
33903;DHT22;20194;50.950;5.346;2024-03-29T08:29:30;11.10;99.90
33903;DHT22;20194;50.950;5.346;2024-03-29T08:31:56;11.20;99.90
33903;DHT22;20194;50.950;5.346;2024-03-29T08:34:22;11.30;99.90
33903;DHT22;20194;50.950;5.346;2024-03-29T08:36:48;11.50;99.90
33903;DHT22;20194;50.950;5.346;2024-03-29T08:39:14;11.70;99.90
33903;DHT22;20194;50.950;5.346;2024-03-29T08:41:40;11.80;99.90
33903;DHT22;20194;50.950;5.346;2024-03-29T08:44:07;11.90;99.50
33903;DHT22;20194;50.950;5.346;2024-03-29T08:46:36;12.00;99.60
33903;DHT22;20194;50.950;5.346;2024-03-29T08:49:01;12.00;99.00
33903;DHT22;20194;50.950;5.346;2024-03-29T08:51:27;11.90;99.40
33903;DHT22;20194;50.950;5.346;2024-03-29T08:53:54;12.00;98.90
33903;DHT22;20194;50.950;5.346;2024-03-29T08:56:19;12.00;98.60
33903;DHT22;20194;50.950;5.346;2024-03-29T08:58:45;12.10;97.90
33903;DHT22;20194;50.950;5.346;2024-03-29T09:01:12;12.00;97.20
33903;DHT22;20194;50.950;5.346;2024-03-29T09:03:40;12.00;97.10
33903;DHT22;20194;50.950;5.346;2024-03-29T09:06:06;12.00;97.60
33903;DHT22;20194;50.950;5.346;2024-03-29T09:08:31;12.00;97.50
33903;DHT22;20194;50.950;5.346;2024-03-29T09:10:57;12.00;97.60
33903;DHT22;20194;50.950;5.346;2024-03-29T09:13:24;12.00;97.60
33903;DHT22;20194;50.950;5.346;2024-03-29T09:15:49;12.10;97.20
33903;DHT22;20194;50.950;5.346;2024-03-29T09:18:15;12.20;97.10
33903;DHT22;20194;50.950;5.346;2024-03-29T09:21:01;12.20;97.00
33903;DHT22;20194;50.950;5.346;2024-03-29T09:23:28;12.10;96.30
33903;DHT22;20194;50.950;5.346;2024-03-29T09:25:55;12.00;96.50
33903;DHT22;20194;50.950;5.346;2024-03-29T09:28:22;12.10;97.00
33903;DHT22;20194;50.950;5.346;2024-03-29T09:30:48;12.20;96.70
33903;DHT22;20194;50.950;5.346;2024-03-29T09:33:14;12.20;96.20
33903;DHT22;20194;50.950;5.346;2024-03-29T09:35:40;12.20;95.30
33903;DHT22;20194;50.950;5.346;2024-03-29T09:38:06;12.10;95.80
33903;DHT22;20194;50.950;5.346;2024-03-29T09:40:32;12.20;96.00
33903;DHT22;20194;50.950;5.346;2024-03-29T09:43:00;12.20;95.80
33903;DHT22;20194;50.950;5.346;2024-03-29T09:45:33;12.20;95.50
33903;DHT22;20194;50.950;5.346;2024-03-29T09:48:03;12.20;95.40
33903;DHT22;20194;50.950;5.346;2024-03-29T09:50:30;12.20;95.40
33903;DHT22;20194;50.950;5.346;2024-03-29T09:52:56;12.30;95.90
33903;DHT22;20194;50.950;5.346;2024-03-29T09:55:23;12.40;95.40
33903;DHT22;20194;50.950;5.346;2024-03-29T09:57:49;12.30;95.20
33903;DHT22;20194;50.950;5.346;2024-03-29T10:00:15;12.40;95.30
33903;DHT22;20194;50.950;5.346;2024-03-29T10:02:41;12.50;95.80
33903;DHT22;20194;50.950;5.346;2024-03-29T10:05:08;12.50;94.50
33903;DHT22;20194;50.950;5.346;2024-03-29T10:07:36;12.50;95.00
33903;DHT22;20194;50.950;5.346;2024-03-29T10:10:04;12.50;95.00
33903;DHT22;20194;50.950;5.346;2024-03-29T10:12:30;12.60;95.10
33903;DHT22;20194;50.950;5.346;2024-03-29T10:14:56;12.60;95.20
33903;DHT22;20194;50.950;5.346;2024-03-29T10:17:32;12.70;95.30
33903;DHT22;20194;50.950;5.346;2024-03-29T10:20:01;12.80;95.10
33903;DHT22;20194;50.950;5.346;2024-03-29T10:22:35;13.00;95.20
33903;DHT22;20194;50.950;5.346;2024-03-29T10:25:01;13.20;93.50
33903;DHT22;20194;50.950;5.346;2024-03-29T10:27:27;13.20;94.30
33903;DHT22;20194;50.950;5.346;2024-03-29T10:29:53;13.30;93.90
33903;DHT22;20194;50.950;5.346;2024-03-29T10:32:19;13.50;93.40
33903;DHT22;20194;50.950;5.346;2024-03-29T10:34:45;13.50;92.70
33903;DHT22;20194;50.950;5.346;2024-03-29T10:37:10;13.60;92.90
33903;DHT22;20194;50.950;5.346;2024-03-29T10:39:36;13.70;92.10
33903;DHT22;20194;50.950;5.346;2024-03-29T10:42:07;13.70;92.20
33903;DHT22;20194;50.950;5.346;2024-03-29T10:44:35;13.80;92.10
33903;DHT22;20194;50.950;5.346;2024-03-29T10:47:01;13.80;91.60
33903;DHT22;20194;50.950;5.346;2024-03-29T10:49:30;13.90;90.00
33903;DHT22;20194;50.950;5.346;2024-03-29T10:51:59;13.90;87.80
33903;DHT22;20194;50.950;5.346;2024-03-29T10:54:25;14.20;85.60
33903;DHT22;20194;50.950;5.346;2024-03-29T10:57:06;14.40;86.00
33903;DHT22;20194;50.950;5.346;2024-03-29T11:00:08;14.70;86.90
33903;DHT22;20194;50.950;5.346;2024-03-29T11:02:48;14.70;78.30
33903;DHT22;20194;50.950;5.346;2024-03-29T11:05:15;14.80;75.80
33903;DHT22;20194;50.950;5.346;2024-03-29T11:07:42;14.60;74.80
33903;DHT22;20194;50.950;5.346;2024-03-29T11:10:26;14.50;71.40
33903;DHT22;20194;50.950;5.346;2024-03-29T11:15:38;14.40;78.20
33903;DHT22;20194;50.950;5.346;2024-03-29T11:18:08;14.50;78.40
33903;DHT22;20194;50.950;5.346;2024-03-29T11:20:35;14.50;76.60
33903;DHT22;20194;50.950;5.346;2024-03-29T11:23:11;14.30;76.00
33903;DHT22;20194;50.950;5.346;2024-03-29T11:25:44;14.20;78.50
33903;DHT22;20194;50.950;5.346;2024-03-29T11:28:15;14.00;78.30
33903;DHT22;20194;50.950;5.346;2024-03-29T11:30:45;14.00;80.00
33903;DHT22;20194;50.950;5.346;2024-03-29T11:33:28;14.00;78.90
33903;DHT22;20194;50.950;5.346;2024-03-29T11:35:55;13.90;79.30
33903;DHT22;20194;50.950;5.346;2024-03-29T11:38:21;13.90;80.40
33903;DHT22;20194;50.950;5.346;2024-03-29T11:41:07;14.00;79.50
33903;DHT22;20194;50.950;5.346;2024-03-29T11:43:34;13.90;75.60
33903;DHT22;20194;50.950;5.346;2024-03-29T11:46:01;14.00;73.70
33903;DHT22;20194;50.950;5.346;2024-03-29T11:48:27;14.10;72.30
33903;DHT22;20194;50.950;5.346;2024-03-29T11:50:54;14.20;75.60
33903;DHT22;20194;50.950;5.346;2024-03-29T11:53:21;14.40;73.50
33903;DHT22;20194;50.950;5.346;2024-03-29T11:55:47;14.40;72.40
33903;DHT22;20194;50.950;5.346;2024-03-29T11:58:14;14.50;73.30
33903;DHT22;20194;50.950;5.346;2024-03-29T12:00:41;14.50;72.50
33903;DHT22;20194;50.950;5.346;2024-03-29T12:03:10;14.40;71.20
33903;DHT22;20194;50.950;5.346;2024-03-29T12:05:36;14.50;72.10
33903;DHT22;20194;50.950;5.346;2024-03-29T12:08:01;14.50;72.50
33903;DHT22;20194;50.950;5.346;2024-03-29T12:10:30;14.60;66.70
33903;DHT22;20194;50.950;5.346;2024-03-29T12:12:59;14.80;69.90
33903;DHT22;20194;50.950;5.346;2024-03-29T12:15:27;15.00;68.80
33903;DHT22;20194;50.950;5.346;2024-03-29T12:18:04;15.10;64.80
33903;DHT22;20194;50.950;5.346;2024-03-29T12:20:37;15.30;64.60
33903;DHT22;20194;50.950;5.346;2024-03-29T12:23:05;15.40;63.90
33903;DHT22;20194;50.950;5.346;2024-03-29T12:25:33;15.60;59.30
33903;DHT22;20194;50.950;5.346;2024-03-29T12:27:59;15.50;60.00
33903;DHT22;20194;50.950;5.346;2024-03-29T12:30:28;15.40;62.30
33903;DHT22;20194;50.950;5.346;2024-03-29T12:35:30;15.70;63.80
33903;DHT22;20194;50.950;5.346;2024-03-29T12:37:59;15.60;57.40
33903;DHT22;20194;50.950;5.346;2024-03-29T12:40:26;15.50;61.20
33903;DHT22;20194;50.950;5.346;2024-03-29T12:42:54;15.40;61.80
33903;DHT22;20194;50.950;5.346;2024-03-29T12:45:20;15.40;62.80
33903;DHT22;20194;50.950;5.346;2024-03-29T12:47:46;15.70;59.90
33903;DHT22;20194;50.950;5.346;2024-03-29T12:50:34;16.00;60.90
33903;DHT22;20194;50.950;5.346;2024-03-29T12:53:01;16.10;57.50
33903;DHT22;20194;50.950;5.346;2024-03-29T12:55:29;16.00;54.80
33903;DHT22;20194;50.950;5.346;2024-03-29T12:58:02;15.90;53.30
33903;DHT22;20194;50.950;5.346;2024-03-29T13:00:32;15.80;56.00
33903;DHT22;20194;50.950;5.346;2024-03-29T13:02:58;15.80;54.70
33903;DHT22;20194;50.950;5.346;2024-03-29T13:05:24;15.90;54.80
33903;DHT22;20194;50.950;5.346;2024-03-29T13:07:51;15.80;50.70
33903;DHT22;20194;50.950;5.346;2024-03-29T13:10:17;15.80;52.60
33903;DHT22;20194;50.950;5.346;2024-03-29T13:12:47;15.70;52.90
33903;DHT22;20194;50.950;5.346;2024-03-29T13:15:19;15.50;55.20
33903;DHT22;20194;50.950;5.346;2024-03-29T13:17:46;15.50;57.20
33903;DHT22;20194;50.950;5.346;2024-03-29T13:20:14;15.60;55.70
33903;DHT22;20194;50.950;5.346;2024-03-29T13:22:41;15.70;57.30
33903;DHT22;20194;50.950;5.346;2024-03-29T13:25:10;15.70;55.80
33903;DHT22;20194;50.950;5.346;2024-03-29T13:27:43;15.90;54.60
33903;DHT22;20194;50.950;5.346;2024-03-29T13:30:11;15.90;54.40
33903;DHT22;20194;50.950;5.346;2024-03-29T13:32:38;16.20;53.10
33903;DHT22;20194;50.950;5.346;2024-03-29T13:35:11;16.20;45.80
33903;DHT22;20194;50.950;5.346;2024-03-29T13:37:43;16.10;46.20
33903;DHT22;20194;50.950;5.346;2024-03-29T13:40:12;16.10;52.20
33903;DHT22;20194;50.950;5.346;2024-03-29T13:42:38;16.10;52.80
33903;DHT22;20194;50.950;5.346;2024-03-29T13:45:05;15.90;52.60
33903;DHT22;20194;50.950;5.346;2024-03-29T13:47:32;15.90;52.90
33903;DHT22;20194;50.950;5.346;2024-03-29T13:49:58;15.80;49.30
33903;DHT22;20194;50.950;5.346;2024-03-29T13:52:24;15.70;47.50
33903;DHT22;20194;50.950;5.346;2024-03-29T13:54:52;15.70;44.90
33903;DHT22;20194;50.950;5.346;2024-03-29T13:57:18;15.70;39.00
33903;DHT22;20194;50.950;5.346;2024-03-29T13:59:44;15.60;42.20
33903;DHT22;20194;50.950;5.346;2024-03-29T14:02:15;15.60;42.30
33903;DHT22;20194;50.950;5.346;2024-03-29T14:04:45;15.80;43.30
33903;DHT22;20194;50.950;5.346;2024-03-29T14:07:11;15.90;42.50
33903;DHT22;20194;50.950;5.346;2024-03-29T14:09:42;16.00;41.50
33903;DHT22;20194;50.950;5.346;2024-03-29T14:12:09;16.00;40.40
33903;DHT22;20194;50.950;5.346;2024-03-29T14:14:35;15.90;43.30
33903;DHT22;20194;50.950;5.346;2024-03-29T14:17:02;15.90;44.20
33903;DHT22;20194;50.950;5.346;2024-03-29T14:19:33;15.90;44.80
33903;DHT22;20194;50.950;5.346;2024-03-29T14:22:00;15.90;43.80
33903;DHT22;20194;50.950;5.346;2024-03-29T14:24:25;15.80;45.50
33903;DHT22;20194;50.950;5.346;2024-03-29T14:26:52;15.80;47.90
33903;DHT22;20194;50.950;5.346;2024-03-29T14:29:19;15.90;44.30
33903;DHT22;20194;50.950;5.346;2024-03-29T14:31:48;15.90;46.60
33903;DHT22;20194;50.950;5.346;2024-03-29T14:34:13;15.90;46.00
33903;DHT22;20194;50.950;5.346;2024-03-29T14:36:39;16.00;46.00
33903;DHT22;20194;50.950;5.346;2024-03-29T14:39:05;16.00;44.00
33903;DHT22;20194;50.950;5.346;2024-03-29T14:41:31;16.00;43.10
33903;DHT22;20194;50.950;5.346;2024-03-29T14:43:57;16.00;40.00
33903;DHT22;20194;50.950;5.346;2024-03-29T14:46:23;16.00;42.80
33903;DHT22;20194;50.950;5.346;2024-03-29T14:48:49;16.00;42.10
33903;DHT22;20194;50.950;5.346;2024-03-29T14:51:16;15.90;41.80
33903;DHT22;20194;50.950;5.346;2024-03-29T14:53:42;15.80;44.80
33903;DHT22;20194;50.950;5.346;2024-03-29T14:56:13;15.70;45.40
33903;DHT22;20194;50.950;5.346;2024-03-29T14:58:39;15.70;45.80
33903;DHT22;20194;50.950;5.346;2024-03-29T15:01:05;15.70;44.00
33903;DHT22;20194;50.950;5.346;2024-03-29T15:03:31;15.70;42.90
33903;DHT22;20194;50.950;5.346;2024-03-29T15:05:56;15.80;45.00
33903;DHT22;20194;50.950;5.346;2024-03-29T15:08:22;15.90;43.30
33903;DHT22;20194;50.950;5.346;2024-03-29T15:11:04;15.90;41.40
33903;DHT22;20194;50.950;5.346;2024-03-29T15:13:32;15.90;42.80
33903;DHT22;20194;50.950;5.346;2024-03-29T15:15:59;15.90;41.80
33903;DHT22;20194;50.950;5.346;2024-03-29T15:18:25;15.80;40.60
33903;DHT22;20194;50.950;5.346;2024-03-29T15:20:59;15.80;42.20
33903;DHT22;20194;50.950;5.346;2024-03-29T15:23:27;15.80;43.20
33903;DHT22;20194;50.950;5.346;2024-03-29T15:26:00;15.80;43.80
33903;DHT22;20194;50.950;5.346;2024-03-29T15:28:26;15.80;43.40
33903;DHT22;20194;50.950;5.346;2024-03-29T15:31:12;15.90;44.40
33903;DHT22;20194;50.950;5.346;2024-03-29T15:33:38;15.90;41.20
33903;DHT22;20194;50.950;5.346;2024-03-29T15:36:04;15.90;40.30
33903;DHT22;20194;50.950;5.346;2024-03-29T15:38:31;15.90;36.90
33903;DHT22;20194;50.950;5.346;2024-03-29T15:40:57;15.90;36.40
33903;DHT22;20194;50.950;5.346;2024-03-29T15:43:24;16.10;35.10